Terminal Aerodrome Forecast
Issued by NWS

Home | Current Version | Previous Version | Text Only | Print | Product List | Glossary On
Versions: 1 2 3 4 5 6 7 8 9 10 11 12 13
000
FTUS43 KDTX 251123
TAFYIP
TAF
KYIP 251123Z 2512/2612 24008KT P6SM BKN250
     FM251900 21008KT P6SM SCT060
     FM260100 16005KT P6SM BKN060 OVC150
     FM260700 21005KT 5SM -SHRA BR OVC060=

USA.gov is the U.S. government's official web portal to all federal, state and local government web resources and services.